createdAt,value
2022-10-15T00:05:22.343Z,16.7
2022-10-15T00:10:57.499Z,16.7
2022-10-15T00:16:36.080Z,16.7
2022-10-15T00:22:13.497Z,16.7
2022-10-15T00:28:09.297Z,16.7
2022-10-15T00:34:12.518Z,16.6
2022-10-15T00:39:55.228Z,16.6
2022-10-15T00:46:38.417Z,16.5
2022-10-15T00:52:15.540Z,16.5
2022-10-15T00:58:01.029Z,16.4
2022-10-15T01:03:37.281Z,16.4
2022-10-15T01:09:12.037Z,16.3
2022-10-15T01:14:48.083Z,16.3
2022-10-15T01:20:28.147Z,16.2
2022-10-15T01:26:04.060Z,16.2
2022-10-15T01:31:39.847Z,16.2
2022-10-15T01:37:15.210Z,16.1
2022-10-15T01:42:50.041Z,16.1
2022-10-15T01:48:24.873Z,16
2022-10-15T01:54:23.752Z,16
2022-10-15T01:59:58.751Z,15.9
2022-10-15T02:07:10.267Z,15.9
2022-10-15T02:13:07.959Z,16
2022-10-15T02:18:46.053Z,16
2022-10-15T02:24:21.822Z,15.9
2022-10-15T02:29:57.061Z,15.9
2022-10-15T02:35:43.059Z,15.9
2022-10-15T02:41:18.156Z,15.8
2022-10-15T02:46:52.983Z,15.8
2022-10-15T02:52:36.552Z,15.8
2022-10-15T02:58:12.412Z,15.7
2022-10-15T03:03:58.663Z,15.7
2022-10-15T03:09:47.048Z,15.6
2022-10-15T03:15:27.720Z,15.6
2022-10-15T03:21:05.883Z,15.5
2022-10-15T03:26:41.083Z,15.5
2022-10-15T03:32:36.948Z,15.4
2022-10-15T03:38:13.644Z,15.4
2022-10-15T03:44:05.276Z,15.3
2022-10-15T03:49:53.854Z,15.4
2022-10-15T03:55:29.017Z,15.4
2022-10-15T04:01:32.006Z,15.3
2022-10-15T04:07:08.041Z,15.3
2022-10-15T04:12:43.874Z,15.3
2022-10-15T04:18:22.942Z,15.3
2022-10-15T04:23:58.082Z,15.2
2022-10-15T04:29:32.952Z,15.2
2022-10-15T04:35:07.810Z,15.1
2022-10-15T04:40:42.745Z,15.1
2022-10-15T04:46:20.679Z,15
2022-10-15T04:52:12.374Z,15
2022-10-15T04:57:47.203Z,14.9
2022-10-15T05:03:22.085Z,14.9
2022-10-15T05:08:58.821Z,14.9
2022-10-15T05:14:38.063Z,14.8
2022-10-15T05:20:19.099Z,14.8
2022-10-15T05:26:05.836Z,14.8
2022-10-15T05:31:41.879Z,14.7
2022-10-15T05:37:16.652Z,14.7
2022-10-15T05:42:59.799Z,14.6
2022-10-15T05:48:37.387Z,14.6
2022-10-15T05:54:12.188Z,14.6
2022-10-15T05:59:53.326Z,14.5
2022-10-15T06:05:28.151Z,14.5
2022-10-15T06:11:05.251Z,13.5
2022-10-15T06:16:44.613Z,12.8
2022-10-15T06:22:19.779Z,12.6
2022-10-15T06:27:54.980Z,12.2
2022-10-15T06:33:30.170Z,12.3
2022-10-15T06:39:04.965Z,12.2
2022-10-15T06:44:39.917Z,12.4
2022-10-15T06:50:14.725Z,12.4
2022-10-15T06:55:49.831Z,12.7
2022-10-15T07:01:25.945Z,12.9
2022-10-15T07:07:00.748Z,13
2022-10-15T07:12:35.616Z,13.2
2022-10-15T07:18:10.733Z,13.3
2022-10-15T07:23:45.650Z,13.5
2022-10-15T07:29:21.049Z,13.6
2022-10-15T07:34:57.767Z,13.8
2022-10-15T07:40:33.395Z,14
2022-10-15T07:46:09.180Z,14.2
2022-10-15T07:51:45.504Z,14.4
2022-10-15T07:57:20.436Z,14.5
2022-10-15T08:02:55.540Z,14.6
2022-10-15T08:08:31.192Z,14.7
2022-10-15T08:14:06.327Z,14.9
2022-10-15T08:19:41.156Z,15.1
2022-10-15T08:25:16.066Z,15.3
2022-10-15T08:30:52.404Z,15.4
2022-10-15T08:36:27.320Z,15.7
2022-10-15T08:42:02.571Z,15.9
2022-10-15T08:47:38.542Z,16.2
2022-10-15T08:53:14.448Z,16.3
2022-10-15T08:58:49.372Z,16.5
2022-10-15T09:04:24.381Z,16.9
2022-10-15T09:09:59.383Z,17.2
2022-10-15T09:15:35.255Z,17.4
2022-10-15T09:21:10.432Z,17.7
2022-10-15T09:26:45.613Z,17.9
2022-10-15T09:32:21.154Z,18.1
2022-10-15T09:38:03.486Z,18.4
2022-10-15T09:43:41.253Z,18.6
2022-10-15T09:49:17.596Z,18.9
2022-10-15T09:54:52.610Z,19.1
2022-10-15T10:00:28.720Z,19.5
2022-10-15T10:06:03.943Z,19.7
2022-10-15T10:11:40.138Z,19.9
2022-10-15T10:17:15.036Z,20.1
2022-10-15T10:23:11.038Z,20.5
2022-10-15T10:28:46.107Z,20.7
2022-10-15T10:34:22.052Z,20.5
2022-10-15T10:39:58.197Z,20.7
2022-10-15T10:45:33.181Z,20.9
2022-10-15T10:51:09.135Z,21
2022-10-15T10:56:54.461Z,21.3
2022-10-15T11:02:31.767Z,21.5
2022-10-15T11:08:06.729Z,21.6
2022-10-15T11:13:41.859Z,22
2022-10-15T11:19:59.992Z,22
2022-10-15T11:26:51.903Z,22.2
2022-10-15T11:33:05.970Z,22.4
2022-10-15T11:39:06.378Z,22.6
2022-10-15T11:44:41.278Z,22.7
2022-10-15T11:50:16.535Z,23
2022-10-15T11:55:51.285Z,23
2022-10-15T12:01:26.334Z,23.2
2022-10-15T12:07:02.390Z,23.4
2022-10-15T12:12:37.296Z,23.5
2022-10-15T12:18:12.431Z,23.7
2022-10-15T12:23:47.785Z,24
2022-10-15T12:29:33.409Z,24.3
2022-10-15T12:35:08.494Z,24.6
2022-10-15T12:40:56.652Z,24.9
2022-10-15T12:46:37.778Z,25
2022-10-15T12:52:16.562Z,25.3
2022-10-15T12:57:51.595Z,25.5
2022-10-15T13:03:31.406Z,25.8
2022-10-15T13:09:06.608Z,26.3
2022-10-15T13:14:43.717Z,26.3
2022-10-15T13:20:18.741Z,26.6
2022-10-15T13:25:56.522Z,26.8
2022-10-15T13:31:52.720Z,27.2
2022-10-15T13:37:27.587Z,27.6
2022-10-15T13:43:03.067Z,27.8
2022-10-15T13:48:46.935Z,28.4
2022-10-15T13:54:43.499Z,28.7
2022-10-15T14:00:27.911Z,29.3
2022-10-15T14:06:04.905Z,30
2022-10-15T14:11:40.989Z,30.7
2022-10-15T14:17:24.784Z,31.8
2022-10-15T14:23:03.368Z,33.1
2022-10-15T14:28:39.385Z,35.3
2022-10-15T14:34:17.731Z,39
2022-10-15T14:39:53.336Z,41.5
2022-10-15T14:45:29.803Z,42.5
2022-10-15T14:51:08.926Z,34.9
2022-10-15T14:56:43.882Z,31.2
2022-10-15T15:02:39.481Z,29.5
2022-10-15T15:08:25.729Z,29.2
2022-10-15T15:14:13.843Z,32.3
2022-10-15T15:19:48.758Z,30.3
2022-10-15T15:25:26.455Z,29.3
2022-10-15T15:31:05.831Z,27.8
2022-10-15T15:36:53.453Z,26.7
2022-10-15T15:42:53.259Z,26
2022-10-15T15:48:33.198Z,25.6
2022-10-15T15:54:08.258Z,25.4
2022-10-15T15:59:53.333Z,25
2022-10-15T16:05:31.784Z,24.7
2022-10-15T16:11:18.011Z,24.5
2022-10-15T16:16:53.003Z,24.2
2022-10-15T16:22:31.005Z,23.6
2022-10-15T16:28:12.474Z,23.4
2022-10-15T16:33:51.612Z,23.1
2022-10-15T16:39:39.682Z,22.8
2022-10-15T16:45:20.956Z,22.4
2022-10-15T16:50:55.588Z,22.2
2022-10-15T16:56:30.531Z,22.2
2022-10-15T17:02:06.552Z,22.1
2022-10-15T17:07:42.603Z,21.9
2022-10-15T17:13:18.041Z,21.7
2022-10-15T17:18:53.000Z,21.5
2022-10-15T17:24:27.910Z,21.2
2022-10-15T17:30:02.750Z,21
2022-10-15T17:35:38.538Z,20.9
2022-10-15T17:41:31.203Z,20.7
2022-10-15T17:47:10.021Z,20.7
2022-10-15T17:52:49.498Z,21.1
2022-10-15T17:59:55.085Z,21.3
2022-10-15T18:05:38.856Z,21.3
2022-10-15T18:11:47.876Z,21.3
2022-10-15T18:17:32.691Z,21.2
2022-10-15T18:23:12.416Z,21.2
2022-10-15T18:28:47.524Z,21.2
2022-10-15T18:34:23.673Z,21.1
2022-10-15T18:39:58.680Z,21.1
2022-10-15T18:45:33.651Z,21
2022-10-15T18:51:33.912Z,20.9
2022-10-15T18:57:20.677Z,20.9
2022-10-15T19:03:04.433Z,20.9
2022-10-15T19:08:43.630Z,20.9
2022-10-15T19:14:45.464Z,20.8
2022-10-15T19:20:28.401Z,20.8
2022-10-15T19:26:07.546Z,20.8
2022-10-15T19:31:48.500Z,20.8
2022-10-15T19:37:23.493Z,20.7
2022-10-15T19:43:23.335Z,20.6
2022-10-15T19:48:55.970Z,20.5
2022-10-15T19:54:30.975Z,20.5
2022-10-15T20:00:07.174Z,20.5
2022-10-15T20:05:45.129Z,20.4
2022-10-15T20:11:30.485Z,20.3
2022-10-15T20:17:06.589Z,20.2
2022-10-15T20:22:41.573Z,20.1
2022-10-15T20:28:49.171Z,20.1
2022-10-15T20:34:44.826Z,20.1
2022-10-15T20:40:40.551Z,20
2022-10-15T20:47:14.933Z,19.9
2022-10-15T20:52:49.807Z,19.9
2022-10-15T20:58:24.614Z,19.8
2022-10-15T21:04:11.923Z,19.8
2022-10-15T21:10:08.055Z,19.7
2022-10-15T21:15:48.053Z,19.6
2022-10-15T21:21:22.729Z,19.6
2022-10-15T21:26:58.418Z,19.5
2022-10-15T21:32:42.148Z,19.4
2022-10-15T21:38:31.423Z,19.3
2022-10-15T21:44:11.208Z,19.2
2022-10-15T21:49:58.825Z,19.2
2022-10-15T21:55:45.446Z,19.1
2022-10-15T22:01:29.975Z,19.1
2022-10-15T22:07:07.470Z,19
2022-10-15T22:12:42.430Z,19
2022-10-15T22:18:20.204Z,18.9
2022-10-15T22:23:55.162Z,18.9
2022-10-15T22:29:41.700Z,18.8
2022-10-15T22:35:17.333Z,18.8
2022-10-15T22:40:54.800Z,18.8
2022-10-15T22:46:36.635Z,18.9
2022-10-15T22:52:11.566Z,18.9
2022-10-15T22:57:52.167Z,18.8
2022-10-15T23:03:27.014Z,18.8
2022-10-15T23:09:38.457Z,18.7
2022-10-15T23:15:26.891Z,18.6
2022-10-15T23:21:11.500Z,18.5
2022-10-15T23:26:46.479Z,18.5
2022-10-15T23:32:21.856Z,18.5
2022-10-15T23:38:04.707Z,18.5
2022-10-15T23:43:47.830Z,18.4
2022-10-15T23:49:26.791Z,18.4
2022-10-15T23:55:04.572Z,18.3
